sensor_id;sensor_type;location;lat;lon;timestamp;temperature;humidity
71837;DHT22;59686;51.716;7.016;2022-10-15T00:00:47;14.60;87.50
71837;DHT22;59686;51.716;7.016;2022-10-15T00:03:13;14.60;87.50
71837;DHT22;59686;51.716;7.016;2022-10-15T00:05:40;14.60;87.50
71837;DHT22;59686;51.716;7.016;2022-10-15T00:08:07;14.60;87.50
71837;DHT22;59686;51.716;7.016;2022-10-15T00:10:34;14.60;87.50
71837;DHT22;59686;51.716;7.016;2022-10-15T00:13:00;14.60;87.40
71837;DHT22;59686;51.716;7.016;2022-10-15T00:15:26;14.60;87.40
71837;DHT22;59686;51.716;7.016;2022-10-15T00:17:52;14.70;87.50
71837;DHT22;59686;51.716;7.016;2022-10-15T00:20:17;14.60;87.40
71837;DHT22;59686;51.716;7.016;2022-10-15T00:22:43;14.50;87.40
71837;DHT22;59686;51.716;7.016;2022-10-15T00:25:09;14.70;87.50
71837;DHT22;59686;51.716;7.016;2022-10-15T00:27:35;14.50;87.30
71837;DHT22;59686;51.716;7.016;2022-10-15T00:30:03;14.70;87.50
71837;DHT22;59686;51.716;7.016;2022-10-15T00:32:33;14.60;87.50
71837;DHT22;59686;51.716;7.016;2022-10-15T00:34:58;14.60;87.50
71837;DHT22;59686;51.716;7.016;2022-10-15T00:37:24;14.60;87.50
71837;DHT22;59686;51.716;7.016;2022-10-15T00:39:50;14.60;87.40
71837;DHT22;59686;51.716;7.016;2022-10-15T00:42:16;14.60;87.40
71837;DHT22;59686;51.716;7.016;2022-10-15T00:44:45;14.60;87.40
71837;DHT22;59686;51.716;7.016;2022-10-15T00:47:57;14.60;87.40
71837;DHT22;59686;51.716;7.016;2022-10-15T00:50:07;14.60;87.40
71837;DHT22;59686;51.716;7.016;2022-10-15T00:53:11;14.60;87.40
71837;DHT22;59686;51.716;7.016;2022-10-15T00:55:41;14.60;87.40
71837;DHT22;59686;51.716;7.016;2022-10-15T00:58:14;14.60;87.50
71837;DHT22;59686;51.716;7.016;2022-10-15T01:00:41;14.50;87.40
71837;DHT22;59686;51.716;7.016;2022-10-15T01:03:08;14.60;87.50
71837;DHT22;59686;51.716;7.016;2022-10-15T01:05:34;14.60;87.50
71837;DHT22;59686;51.716;7.016;2022-10-15T01:08:01;14.60;87.50
71837;DHT22;59686;51.716;7.016;2022-10-15T01:10:33;14.60;87.40
71837;DHT22;59686;51.716;7.016;2022-10-15T01:13:37;14.60;87.50
71837;DHT22;59686;51.716;7.016;2022-10-15T01:16:16;14.50;87.40
71837;DHT22;59686;51.716;7.016;2022-10-15T01:18:57;14.60;87.50
71837;DHT22;59686;51.716;7.016;2022-10-15T01:21:32;14.60;87.50
71837;DHT22;59686;51.716;7.016;2022-10-15T01:32:01;14.50;87.50
71837;DHT22;59686;51.716;7.016;2022-10-15T01:34:39;14.50;87.60
71837;DHT22;59686;51.716;7.016;2022-10-15T01:37:45;14.50;87.50
71837;DHT22;59686;51.716;7.016;2022-10-15T01:40:20;14.50;87.50
71837;DHT22;59686;51.716;7.016;2022-10-15T01:42:59;14.50;87.50
71837;DHT22;59686;51.716;7.016;2022-10-15T01:45:39;14.50;87.50
71837;DHT22;59686;51.716;7.016;2022-10-15T01:48:09;14.50;87.50
71837;DHT22;59686;51.716;7.016;2022-10-15T01:50:39;14.60;87.50
71837;DHT22;59686;51.716;7.016;2022-10-15T01:53:07;14.50;87.50
71837;DHT22;59686;51.716;7.016;2022-10-15T01:55:36;14.60;87.60
71837;DHT22;59686;51.716;7.016;2022-10-15T01:58:06;14.50;87.40
71837;DHT22;59686;51.716;7.016;2022-10-15T02:00:32;14.50;87.40
71837;DHT22;59686;51.716;7.016;2022-10-15T02:03:02;14.50;87.40
71837;DHT22;59686;51.716;7.016;2022-10-15T02:05:32;14.50;87.50
71837;DHT22;59686;51.716;7.016;2022-10-15T02:08:06;14.50;87.50
71837;DHT22;59686;51.716;7.016;2022-10-15T02:10:58;14.50;87.40
71837;DHT22;59686;51.716;7.016;2022-10-15T02:13:35;14.50;87.40
71837;DHT22;59686;51.716;7.016;2022-10-15T02:16:13;14.50;87.40
71837;DHT22;59686;51.716;7.016;2022-10-15T02:21:29;14.50;87.40
71837;DHT22;59686;51.716;7.016;2022-10-15T02:24:10;14.60;87.60
71837;DHT22;59686;51.716;7.016;2022-10-15T02:26:36;14.50;87.50
71837;DHT22;59686;51.716;7.016;2022-10-15T02:29:07;14.40;87.50
71837;DHT22;59686;51.716;7.016;2022-10-15T02:34:04;14.50;87.50
71837;DHT22;59686;51.716;7.016;2022-10-15T02:36:31;14.50;87.50
71837;DHT22;59686;51.716;7.016;2022-10-15T02:38:58;14.50;88.10
71837;DHT22;59686;51.716;7.016;2022-10-15T02:41:27;14.50;87.40
71837;DHT22;59686;51.716;7.016;2022-10-15T02:43:54;14.50;87.50
71837;DHT22;59686;51.716;7.016;2022-10-15T02:46:19;14.50;87.50
71837;DHT22;59686;51.716;7.016;2022-10-15T02:48:45;14.50;87.30
71837;DHT22;59686;51.716;7.016;2022-10-15T02:51:11;14.50;87.40
71837;DHT22;59686;51.716;7.016;2022-10-15T02:53:37;14.40;87.50
71837;DHT22;59686;51.716;7.016;2022-10-15T02:56:02;14.50;87.50
71837;DHT22;59686;51.716;7.016;2022-10-15T02:58:28;14.50;87.50
71837;DHT22;59686;51.716;7.016;2022-10-15T03:00:55;14.50;87.50
71837;DHT22;59686;51.716;7.016;2022-10-15T03:03:21;14.50;87.50
71837;DHT22;59686;51.716;7.016;2022-10-15T03:05:47;14.50;87.60
71837;DHT22;59686;51.716;7.016;2022-10-15T03:08:13;14.50;87.50
71837;DHT22;59686;51.716;7.016;2022-10-15T03:10:38;14.50;87.50
71837;DHT22;59686;51.716;7.016;2022-10-15T03:13:05;14.50;87.50
71837;DHT22;59686;51.716;7.016;2022-10-15T03:15:31;14.40;87.40
71837;DHT22;59686;51.716;7.016;2022-10-15T03:17:57;14.50;88.10
71837;DHT22;59686;51.716;7.016;2022-10-15T03:20:23;14.50;87.40
71837;DHT22;59686;51.716;7.016;2022-10-15T03:22:49;14.50;87.40
71837;DHT22;59686;51.716;7.016;2022-10-15T03:25:14;14.40;87.30
71837;DHT22;59686;51.716;7.016;2022-10-15T03:27:40;14.50;87.30
71837;DHT22;59686;51.716;7.016;2022-10-15T03:30:06;14.50;87.40
71837;DHT22;59686;51.716;7.016;2022-10-15T03:32:32;14.50;87.50
71837;DHT22;59686;51.716;7.016;2022-10-15T03:34:58;14.50;87.50
71837;DHT22;59686;51.716;7.016;2022-10-15T03:37:23;14.50;87.40
71837;DHT22;59686;51.716;7.016;2022-10-15T03:39:49;14.50;87.40
71837;DHT22;59686;51.716;7.016;2022-10-15T03:42:15;14.40;87.30
71837;DHT22;59686;51.716;7.016;2022-10-15T03:44:40;14.40;87.40
71837;DHT22;59686;51.716;7.016;2022-10-15T03:47:06;14.40;87.50
71837;DHT22;59686;51.716;7.016;2022-10-15T03:49:32;14.40;87.40
71837;DHT22;59686;51.716;7.016;2022-10-15T03:51:57;14.40;87.50
71837;DHT22;59686;51.716;7.016;2022-10-15T03:54:23;14.40;87.40
71837;DHT22;59686;51.716;7.016;2022-10-15T03:56:49;14.40;87.40
71837;DHT22;59686;51.716;7.016;2022-10-15T03:59:14;14.40;87.40
71837;DHT22;59686;51.716;7.016;2022-10-15T04:01:43;14.60;87.50
71837;DHT22;59686;51.716;7.016;2022-10-15T04:04:10;14.40;87.40
71837;DHT22;59686;51.716;7.016;2022-10-15T04:06:37;14.40;87.40
71837;DHT22;59686;51.716;7.016;2022-10-15T04:09:03;14.50;87.40
71837;DHT22;59686;51.716;7.016;2022-10-15T04:11:28;14.40;87.40
71837;DHT22;59686;51.716;7.016;2022-10-15T04:13:54;14.50;87.50
71837;DHT22;59686;51.716;7.016;2022-10-15T04:16:19;14.30;87.30
71837;DHT22;59686;51.716;7.016;2022-10-15T04:18:45;14.40;87.40
71837;DHT22;59686;51.716;7.016;2022-10-15T04:21:11;14.40;87.50
71837;DHT22;59686;51.716;7.016;2022-10-15T04:23:36;14.40;87.60
71837;DHT22;59686;51.716;7.016;2022-10-15T04:26:02;14.40;87.60
71837;DHT22;59686;51.716;7.016;2022-10-15T04:28:28;14.40;87.50
71837;DHT22;59686;51.716;7.016;2022-10-15T04:30:58;14.40;87.60
71837;DHT22;59686;51.716;7.016;2022-10-15T04:33:24;14.40;87.60
71837;DHT22;59686;51.716;7.016;2022-10-15T04:36:05;14.40;87.50
71837;DHT22;59686;51.716;7.016;2022-10-15T04:38:31;14.40;87.50
71837;DHT22;59686;51.716;7.016;2022-10-15T04:40:58;14.40;88.20
71837;DHT22;59686;51.716;7.016;2022-10-15T04:43:24;14.40;87.50
71837;DHT22;59686;51.716;7.016;2022-10-15T04:45:50;14.40;87.60
71837;DHT22;59686;51.716;7.016;2022-10-15T04:48:16;14.50;87.60
71837;DHT22;59686;51.716;7.016;2022-10-15T04:50:41;14.40;87.60
71837;DHT22;59686;51.716;7.016;2022-10-15T04:53:07;14.40;87.50
71837;DHT22;59686;51.716;7.016;2022-10-15T04:55:33;14.40;87.60
71837;DHT22;59686;51.716;7.016;2022-10-15T04:57:58;14.40;87.50
71837;DHT22;59686;51.716;7.016;2022-10-15T05:00:24;14.40;87.60
71837;DHT22;59686;51.716;7.016;2022-10-15T05:02:49;14.40;87.60
71837;DHT22;59686;51.716;7.016;2022-10-15T05:05:15;14.40;87.60
71837;DHT22;59686;51.716;7.016;2022-10-15T05:07:41;14.40;87.60
71837;DHT22;59686;51.716;7.016;2022-10-15T05:10:07;14.40;87.60
71837;DHT22;59686;51.716;7.016;2022-10-15T05:12:32;14.40;87.50
71837;DHT22;59686;51.716;7.016;2022-10-15T05:14:58;14.30;87.50
71837;DHT22;59686;51.716;7.016;2022-10-15T05:17:23;14.40;87.50
71837;DHT22;59686;51.716;7.016;2022-10-15T05:19:49;14.50;87.60
71837;DHT22;59686;51.716;7.016;2022-10-15T05:22:15;14.40;87.60
71837;DHT22;59686;51.716;7.016;2022-10-15T05:24:40;14.40;87.60
71837;DHT22;59686;51.716;7.016;2022-10-15T05:27:06;14.40;87.70
71837;DHT22;59686;51.716;7.016;2022-10-15T05:29:32;14.30;87.60
71837;DHT22;59686;51.716;7.016;2022-10-15T05:31:58;14.50;87.70
71837;DHT22;59686;51.716;7.016;2022-10-15T05:34:23;14.40;87.70
71837;DHT22;59686;51.716;7.016;2022-10-15T05:36:51;14.40;87.70
71837;DHT22;59686;51.716;7.016;2022-10-15T05:39:17;14.40;87.70
71837;DHT22;59686;51.716;7.016;2022-10-15T05:41:42;14.40;87.70
71837;DHT22;59686;51.716;7.016;2022-10-15T05:44:08;14.40;87.70
71837;DHT22;59686;51.716;7.016;2022-10-15T05:46:33;14.40;87.70
71837;DHT22;59686;51.716;7.016;2022-10-15T05:48:59;14.40;87.70
71837;DHT22;59686;51.716;7.016;2022-10-15T05:51:26;14.40;87.60
71837;DHT22;59686;51.716;7.016;2022-10-15T05:53:55;14.30;87.70
71837;DHT22;59686;51.716;7.016;2022-10-15T05:56:21;14.40;87.60
71837;DHT22;59686;51.716;7.016;2022-10-15T05:58:47;14.30;87.60
71837;DHT22;59686;51.716;7.016;2022-10-15T06:01:13;14.40;87.70
71837;DHT22;59686;51.716;7.016;2022-10-15T06:03:40;14.30;87.70
71837;DHT22;59686;51.716;7.016;2022-10-15T06:06:32;14.40;87.70
71837;DHT22;59686;51.716;7.016;2022-10-15T06:08:58;14.40;87.70
71837;DHT22;59686;51.716;7.016;2022-10-15T06:11:26;14.40;87.70
71837;DHT22;59686;51.716;7.016;2022-10-15T06:13:51;14.40;87.60
71837;DHT22;59686;51.716;7.016;2022-10-15T06:16:17;14.40;87.70
71837;DHT22;59686;51.716;7.016;2022-10-15T06:18:43;14.30;87.60
71837;DHT22;59686;51.716;7.016;2022-10-15T06:21:10;14.40;87.60
71837;DHT22;59686;51.716;7.016;2022-10-15T06:23:36;14.40;87.60
71837;DHT22;59686;51.716;7.016;2022-10-15T06:26:06;14.40;87.60
71837;DHT22;59686;51.716;7.016;2022-10-15T06:28:34;14.40;87.60
71837;DHT22;59686;51.716;7.016;2022-10-15T06:31:00;14.40;87.70
71837;DHT22;59686;51.716;7.016;2022-10-15T06:33:27;14.40;87.70
71837;DHT22;59686;51.716;7.016;2022-10-15T06:35:52;14.40;87.70
71837;DHT22;59686;51.716;7.016;2022-10-15T06:38:18;14.40;87.70
71837;DHT22;59686;51.716;7.016;2022-10-15T06:40:44;14.40;87.60
71837;DHT22;59686;51.716;7.016;2022-10-15T06:43:10;14.40;87.70
71837;DHT22;59686;51.716;7.016;2022-10-15T06:45:38;14.50;87.80
71837;DHT22;59686;51.716;7.016;2022-10-15T06:48:04;14.40;87.90
71837;DHT22;59686;51.716;7.016;2022-10-15T06:50:31;14.40;87.70
71837;DHT22;59686;51.716;7.016;2022-10-15T06:52:57;14.40;87.80
71837;DHT22;59686;51.716;7.016;2022-10-15T06:55:23;14.40;88.00
71837;DHT22;59686;51.716;7.016;2022-10-15T06:57:49;14.30;88.00
71837;DHT22;59686;51.716;7.016;2022-10-15T07:00:15;14.40;88.00
71837;DHT22;59686;51.716;7.016;2022-10-15T07:02:41;14.40;88.00
71837;DHT22;59686;51.716;7.016;2022-10-15T07:05:07;14.40;88.10
71837;DHT22;59686;51.716;7.016;2022-10-15T07:07:33;14.40;88.00
71837;DHT22;59686;51.716;7.016;2022-10-15T07:09:59;14.50;88.10
71837;DHT22;59686;51.716;7.016;2022-10-15T07:12:24;14.50;88.00
71837;DHT22;59686;51.716;7.016;2022-10-15T07:14:50;14.40;88.00
71837;DHT22;59686;51.716;7.016;2022-10-15T07:17:16;14.40;88.30
71837;DHT22;59686;51.716;7.016;2022-10-15T07:19:42;14.40;88.10
71837;DHT22;59686;51.716;7.016;2022-10-15T07:22:08;14.40;88.40
71837;DHT22;59686;51.716;7.016;2022-10-15T07:24:34;14.50;88.10
71837;DHT22;59686;51.716;7.016;2022-10-15T07:27:00;14.40;88.10
71837;DHT22;59686;51.716;7.016;2022-10-15T07:29:41;14.40;88.00
71837;DHT22;59686;51.716;7.016;2022-10-15T07:32:06;14.30;88.40
71837;DHT22;59686;51.716;7.016;2022-10-15T07:34:32;14.40;88.20
71837;DHT22;59686;51.716;7.016;2022-10-15T07:36:58;14.40;88.30
71837;DHT22;59686;51.716;7.016;2022-10-15T07:39:23;14.50;88.30
71837;DHT22;59686;51.716;7.016;2022-10-15T07:41:49;14.40;88.40
71837;DHT22;59686;51.716;7.016;2022-10-15T07:44:15;14.40;88.30
71837;DHT22;59686;51.716;7.016;2022-10-15T07:46:40;14.40;88.30
71837;DHT22;59686;51.716;7.016;2022-10-15T07:49:06;14.40;88.20
71837;DHT22;59686;51.716;7.016;2022-10-15T07:51:32;14.40;88.50
71837;DHT22;59686;51.716;7.016;2022-10-15T07:53:57;14.30;88.20
71837;DHT22;59686;51.716;7.016;2022-10-15T07:56:23;14.40;88.20
71837;DHT22;59686;51.716;7.016;2022-10-15T07:58:48;14.40;88.20
71837;DHT22;59686;51.716;7.016;2022-10-15T08:01:18;14.40;88.20
71837;DHT22;59686;51.716;7.016;2022-10-15T08:03:44;14.40;88.20
71837;DHT22;59686;51.716;7.016;2022-10-15T08:06:10;14.40;88.20
71837;DHT22;59686;51.716;7.016;2022-10-15T08:08:36;14.40;88.10
71837;DHT22;59686;51.716;7.016;2022-10-15T08:11:13;14.40;88.00
71837;DHT22;59686;51.716;7.016;2022-10-15T08:13:39;14.50;88.00
71837;DHT22;59686;51.716;7.016;2022-10-15T08:16:08;14.50;88.10
71837;DHT22;59686;51.716;7.016;2022-10-15T08:18:34;14.40;88.10
71837;DHT22;59686;51.716;7.016;2022-10-15T08:21:00;14.50;88.60
71837;DHT22;59686;51.716;7.016;2022-10-15T08:23:27;14.50;88.90
71837;DHT22;59686;51.716;7.016;2022-10-15T08:25:52;14.50;88.10
71837;DHT22;59686;51.716;7.016;2022-10-15T08:28:18;14.50;88.40
71837;DHT22;59686;51.716;7.016;2022-10-15T08:30:44;14.50;88.40
71837;DHT22;59686;51.716;7.016;2022-10-15T08:33:09;14.50;89.20
71837;DHT22;59686;51.716;7.016;2022-10-15T08:35:35;14.50;88.60
71837;DHT22;59686;51.716;7.016;2022-10-15T08:38:04;14.40;88.40
71837;DHT22;59686;51.716;7.016;2022-10-15T08:40:30;14.60;88.70
71837;DHT22;59686;51.716;7.016;2022-10-15T08:42:57;14.50;88.40
71837;DHT22;59686;51.716;7.016;2022-10-15T08:45:40;14.60;88.50
71837;DHT22;59686;51.716;7.016;2022-10-15T08:48:35;14.60;88.50
71837;DHT22;59686;51.716;7.016;2022-10-15T08:51:09;14.50;88.40
71837;DHT22;59686;51.716;7.016;2022-10-15T08:53:40;14.60;88.30
71837;DHT22;59686;51.716;7.016;2022-10-15T08:56:29;14.60;88.40
71837;DHT22;59686;51.716;7.016;2022-10-15T08:59:32;14.60;88.30
71837;DHT22;59686;51.716;7.016;2022-10-15T09:02:15;14.60;88.40
71837;DHT22;59686;51.716;7.016;2022-10-15T09:04:54;14.60;88.30
71837;DHT22;59686;51.716;7.016;2022-10-15T09:07:43;14.60;88.40
71837;DHT22;59686;51.716;7.016;2022-10-15T09:12:57;14.60;88.30
71837;DHT22;59686;51.716;7.016;2022-10-15T09:15:26;14.60;88.50
71837;DHT22;59686;51.716;7.016;2022-10-15T09:17:55;14.60;89.20
71837;DHT22;59686;51.716;7.016;2022-10-15T09:20:33;14.60;88.50
71837;DHT22;59686;51.716;7.016;2022-10-15T09:22:59;14.50;88.40
71837;DHT22;59686;51.716;7.016;2022-10-15T09:25:31;14.60;88.50
71837;DHT22;59686;51.716;7.016;2022-10-15T09:28:06;14.60;88.50
71837;DHT22;59686;51.716;7.016;2022-10-15T09:30:42;14.60;89.50
71837;DHT22;59686;51.716;7.016;2022-10-15T09:34:10;14.60;88.40
71837;DHT22;59686;51.716;7.016;2022-10-15T09:36:51;14.70;88.50
71837;DHT22;59686;51.716;7.016;2022-10-15T09:42:00;14.70;88.60
71837;DHT22;59686;51.716;7.016;2022-10-15T09:44:38;14.70;88.60
71837;DHT22;59686;51.716;7.016;2022-10-15T09:47:19;14.70;88.60
71837;DHT22;59686;51.716;7.016;2022-10-15T09:49:49;14.70;88.50
71837;DHT22;59686;51.716;7.016;2022-10-15T09:52:51;14.70;88.50
71837;DHT22;59686;51.716;7.016;2022-10-15T09:57:36;14.70;88.60
71837;DHT22;59686;51.716;7.016;2022-10-15T10:00:09;14.80;88.70
71837;DHT22;59686;51.716;7.016;2022-10-15T10:02:38;14.70;88.50
71837;DHT22;59686;51.716;7.016;2022-10-15T10:05:29;14.70;88.50
71837;DHT22;59686;51.716;7.016;2022-10-15T10:08:30;14.70;88.40
71837;DHT22;59686;51.716;7.016;2022-10-15T10:10:55;14.80;88.70
71837;DHT22;59686;51.716;7.016;2022-10-15T10:13:38;14.80;88.60
71837;DHT22;59686;51.716;7.016;2022-10-15T10:16:09;14.80;88.60
71837;DHT22;59686;51.716;7.016;2022-10-15T10:18:35;14.80;88.50
71837;DHT22;59686;51.716;7.016;2022-10-15T10:21:19;14.80;88.40
71837;DHT22;59686;51.716;7.016;2022-10-15T10:23:45;14.80;88.50
71837;DHT22;59686;51.716;7.016;2022-10-15T10:26:11;14.80;88.40
71837;DHT22;59686;51.716;7.016;2022-10-15T10:28:50;14.80;88.40
71837;DHT22;59686;51.716;7.016;2022-10-15T10:31:17;14.80;88.50
71837;DHT22;59686;51.716;7.016;2022-10-15T10:33:48;14.90;88.60
71837;DHT22;59686;51.716;7.016;2022-10-15T10:36:28;14.90;88.40
71837;DHT22;59686;51.716;7.016;2022-10-15T10:39:25;14.90;89.60
71837;DHT22;59686;51.716;7.016;2022-10-15T10:42:06;14.90;89.10
71837;DHT22;59686;51.716;7.016;2022-10-15T10:47:13;14.90;88.80
71837;DHT22;59686;51.716;7.016;2022-10-15T10:49:47;14.90;88.60
71837;DHT22;59686;51.716;7.016;2022-10-15T10:52:33;14.80;88.60
71837;DHT22;59686;51.716;7.016;2022-10-15T10:55:17;14.90;88.70
71837;DHT22;59686;51.716;7.016;2022-10-15T11:00:30;14.90;88.70
71837;DHT22;59686;51.716;7.016;2022-10-15T11:02:59;14.90;88.70
71837;DHT22;59686;51.716;7.016;2022-10-15T11:05:27;14.90;88.70
71837;DHT22;59686;51.716;7.016;2022-10-15T11:10:42;14.90;88.90
71837;DHT22;59686;51.716;7.016;2022-10-15T11:16:00;14.90;89.30
71837;DHT22;59686;51.716;7.016;2022-10-15T11:29:27;14.90;89.50
71837;DHT22;59686;51.716;7.016;2022-10-15T11:32:16;14.90;89.60
71837;DHT22;59686;51.716;7.016;2022-10-15T11:37:49;14.90;90.00
71837;DHT22;59686;51.716;7.016;2022-10-15T11:40:31;14.90;90.00
71837;DHT22;59686;51.716;7.016;2022-10-15T11:43:17;14.90;90.00
71837;DHT22;59686;51.716;7.016;2022-10-15T11:45:59;14.90;89.90
71837;DHT22;59686;51.716;7.016;2022-10-15T11:51:07;14.90;90.00
71837;DHT22;59686;51.716;7.016;2022-10-15T11:56:41;14.90;90.10
71837;DHT22;59686;51.716;7.016;2022-10-15T12:02:01;14.90;90.30
71837;DHT22;59686;51.716;7.016;2022-10-15T12:07:23;14.90;90.20
71837;DHT22;59686;51.716;7.016;2022-10-15T12:09:56;14.80;90.10
71837;DHT22;59686;51.716;7.016;2022-10-15T12:12:49;14.90;90.10
71837;DHT22;59686;51.716;7.016;2022-10-15T12:15:46;15.00;90.10
71837;DHT22;59686;51.716;7.016;2022-10-15T12:21:37;15.00;90.00
71837;DHT22;59686;51.716;7.016;2022-10-15T12:24:04;15.00;90.10
71837;DHT22;59686;51.716;7.016;2022-10-15T12:26:35;15.00;90.30
71837;DHT22;59686;51.716;7.016;2022-10-15T12:29:15;15.00;90.60
71837;DHT22;59686;51.716;7.016;2022-10-15T12:31:52;15.00;90.50
71837;DHT22;59686;51.716;7.016;2022-10-15T12:34:39;14.90;90.50
71837;DHT22;59686;51.716;7.016;2022-10-15T12:37:15;14.90;90.60
71837;DHT22;59686;51.716;7.016;2022-10-15T12:39:43;15.10;90.80
71837;DHT22;59686;51.716;7.016;2022-10-15T12:42:28;14.90;90.70
71837;DHT22;59686;51.716;7.016;2022-10-15T12:44:57;15.00;90.60
71837;DHT22;59686;51.716;7.016;2022-10-15T12:47:46;15.10;90.60
71837;DHT22;59686;51.716;7.016;2022-10-15T12:50:25;15.00;90.60
71837;DHT22;59686;51.716;7.016;2022-10-15T12:52:59;15.10;90.60
71837;DHT22;59686;51.716;7.016;2022-10-15T13:00:49;15.10;90.60
71837;DHT22;59686;51.716;7.016;2022-10-15T13:08:50;15.20;90.60
71837;DHT22;59686;51.716;7.016;2022-10-15T13:11:27;15.30;90.70
71837;DHT22;59686;51.716;7.016;2022-10-15T13:14:02;15.20;90.70
71837;DHT22;59686;51.716;7.016;2022-10-15T13:16:35;15.20;90.70
71837;DHT22;59686;51.716;7.016;2022-10-15T13:19:02;15.20;90.90
71837;DHT22;59686;51.716;7.016;2022-10-15T13:21:49;15.30;90.80
71837;DHT22;59686;51.716;7.016;2022-10-15T13:24:18;15.30;90.80
71837;DHT22;59686;51.716;7.016;2022-10-15T13:26:44;15.30;90.80
71837;DHT22;59686;51.716;7.016;2022-10-15T13:29:18;15.30;90.80
71837;DHT22;59686;51.716;7.016;2022-10-15T13:31:45;15.30;90.70
71837;DHT22;59686;51.716;7.016;2022-10-15T13:37:05;15.30;90.90
71837;DHT22;59686;51.716;7.016;2022-10-15T13:39:38;15.30;91.10
71837;DHT22;59686;51.716;7.016;2022-10-15T13:42:17;15.30;91.00
71837;DHT22;59686;51.716;7.016;2022-10-15T13:44:54;15.30;90.90
71837;DHT22;59686;51.716;7.016;2022-10-15T13:47:31;15.30;91.00
71837;DHT22;59686;51.716;7.016;2022-10-15T13:50:28;15.30;91.50
71837;DHT22;59686;51.716;7.016;2022-10-15T13:52:58;15.30;90.90
71837;DHT22;59686;51.716;7.016;2022-10-15T13:55:26;15.30;91.20
71837;DHT22;59686;51.716;7.016;2022-10-15T14:00:30;15.40;90.60
71837;DHT22;59686;51.716;7.016;2022-10-15T14:03:13;15.30;90.40
71837;DHT22;59686;51.716;7.016;2022-10-15T14:05:54;15.30;90.70
71837;DHT22;59686;51.716;7.016;2022-10-15T14:08:27;15.40;91.00
71837;DHT22;59686;51.716;7.016;2022-10-15T14:10:56;15.40;90.90
71837;DHT22;59686;51.716;7.016;2022-10-15T14:13:22;15.40;91.00
71837;DHT22;59686;51.716;7.016;2022-10-15T14:15:52;15.50;91.20
71837;DHT22;59686;51.716;7.016;2022-10-15T14:18:29;15.50;91.80
71837;DHT22;59686;51.716;7.016;2022-10-15T14:20:56;15.50;91.20
71837;DHT22;59686;51.716;7.016;2022-10-15T14:23:23;15.40;91.10
71837;DHT22;59686;51.716;7.016;2022-10-15T14:26:00;15.50;91.10
71837;DHT22;59686;51.716;7.016;2022-10-15T14:28:29;15.60;91.20
71837;DHT22;59686;51.716;7.016;2022-10-15T14:30:56;15.60;91.10
71837;DHT22;59686;51.716;7.016;2022-10-15T14:38:36;15.50;90.40
71837;DHT22;59686;51.716;7.016;2022-10-15T14:41:04;15.50;90.80
71837;DHT22;59686;51.716;7.016;2022-10-15T14:43:37;15.60;90.90
71837;DHT22;59686;51.716;7.016;2022-10-15T14:46:05;15.60;91.10
71837;DHT22;59686;51.716;7.016;2022-10-15T14:48:34;15.60;90.50
71837;DHT22;59686;51.716;7.016;2022-10-15T14:51:13;15.60;89.90
71837;DHT22;59686;51.716;7.016;2022-10-15T14:53:44;15.70;90.90
71837;DHT22;59686;51.716;7.016;2022-10-15T14:56:18;15.60;91.00
71837;DHT22;59686;51.716;7.016;2022-10-15T14:58:49;15.60;90.70
71837;DHT22;59686;51.716;7.016;2022-10-15T15:01:21;15.60;91.40
71837;DHT22;59686;51.716;7.016;2022-10-15T15:03:52;15.60;91.00
71837;DHT22;59686;51.716;7.016;2022-10-15T15:06:18;15.60;91.00
71837;DHT22;59686;51.716;7.016;2022-10-15T15:08:47;15.60;91.60
71837;DHT22;59686;51.716;7.016;2022-10-15T15:11:18;15.60;91.40
71837;DHT22;59686;51.716;7.016;2022-10-15T15:13:45;15.60;91.50
71837;DHT22;59686;51.716;7.016;2022-10-15T15:16:13;15.60;91.70
71837;DHT22;59686;51.716;7.016;2022-10-15T15:18:39;15.60;91.70
71837;DHT22;59686;51.716;7.016;2022-10-15T15:21:20;15.60;91.70
71837;DHT22;59686;51.716;7.016;2022-10-15T15:23:47;15.60;91.10
71837;DHT22;59686;51.716;7.016;2022-10-15T15:26:13;15.60;90.70
71837;DHT22;59686;51.716;7.016;2022-10-15T15:28:39;15.70;90.60
71837;DHT22;59686;51.716;7.016;2022-10-15T15:31:14;15.60;91.10
71837;DHT22;59686;51.716;7.016;2022-10-15T15:33:40;15.70;91.10
71837;DHT22;59686;51.716;7.016;2022-10-15T15:36:10;15.60;91.20
71837;DHT22;59686;51.716;7.016;2022-10-15T15:38:37;15.70;91.50
71837;DHT22;59686;51.716;7.016;2022-10-15T15:41:14;15.70;91.50
71837;DHT22;59686;51.716;7.016;2022-10-15T15:43:40;15.70;91.50
71837;DHT22;59686;51.716;7.016;2022-10-15T15:46:07;15.60;90.70
71837;DHT22;59686;51.716;7.016;2022-10-15T15:48:33;15.70;90.60
71837;DHT22;59686;51.716;7.016;2022-10-15T15:53:36;15.70;90.00
71837;DHT22;59686;51.716;7.016;2022-10-15T15:56:01;15.70;89.50
71837;DHT22;59686;51.716;7.016;2022-10-15T15:58:27;15.70;89.50
71837;DHT22;59686;51.716;7.016;2022-10-15T16:00:53;15.70;89.40
71837;DHT22;59686;51.716;7.016;2022-10-15T16:03:18;15.70;89.60
71837;DHT22;59686;51.716;7.016;2022-10-15T16:05:44;15.70;89.50
71837;DHT22;59686;51.716;7.016;2022-10-15T16:08:11;15.60;90.10
71837;DHT22;59686;51.716;7.016;2022-10-15T16:10:40;15.70;89.90
71837;DHT22;59686;51.716;7.016;2022-10-15T16:13:05;15.70;90.60
71837;DHT22;59686;51.716;7.016;2022-10-15T16:15:31;15.70;90.90
71837;DHT22;59686;51.716;7.016;2022-10-15T16:17:57;15.70;91.70
71837;DHT22;59686;51.716;7.016;2022-10-15T16:20:23;15.60;91.80
71837;DHT22;59686;51.716;7.016;2022-10-15T16:22:50;15.60;91.40
71837;DHT22;59686;51.716;7.016;2022-10-15T16:25:16;15.70;90.90
71837;DHT22;59686;51.716;7.016;2022-10-15T16:27:42;15.70;90.70
71837;DHT22;59686;51.716;7.016;2022-10-15T16:30:10;15.70;90.40
71837;DHT22;59686;51.716;7.016;2022-10-15T16:32:36;15.70;89.80
71837;DHT22;59686;51.716;7.016;2022-10-15T16:35:01;15.80;89.60
71837;DHT22;59686;51.716;7.016;2022-10-15T16:37:27;15.70;89.30
71837;DHT22;59686;51.716;7.016;2022-10-15T16:39:53;15.70;89.10
71837;DHT22;59686;51.716;7.016;2022-10-15T16:42:18;15.60;89.10
71837;DHT22;59686;51.716;7.016;2022-10-15T16:44:44;15.60;89.20
71837;DHT22;59686;51.716;7.016;2022-10-15T16:47:10;15.70;89.20
71837;DHT22;59686;51.716;7.016;2022-10-15T16:49:36;15.70;89.20
71837;DHT22;59686;51.716;7.016;2022-10-15T16:52:01;15.70;89.10
71837;DHT22;59686;51.716;7.016;2022-10-15T16:54:27;15.60;89.00
71837;DHT22;59686;51.716;7.016;2022-10-15T16:56:53;15.60;88.90
71837;DHT22;59686;51.716;7.016;2022-10-15T16:59:19;15.60;88.90
71837;DHT22;59686;51.716;7.016;2022-10-15T17:01:45;15.60;88.90
71837;DHT22;59686;51.716;7.016;2022-10-15T17:04:10;15.60;88.80
71837;DHT22;59686;51.716;7.016;2022-10-15T17:06:36;15.60;88.80
71837;DHT22;59686;51.716;7.016;2022-10-15T17:09:02;15.60;89.00
71837;DHT22;59686;51.716;7.016;2022-10-15T17:11:31;15.60;88.90
71837;DHT22;59686;51.716;7.016;2022-10-15T17:13:59;15.60;88.90